sensor_id;sensor_type;location;lat;lon;timestamp;pressure;altitude;pressure_sealevel;temperature;humidity
66381;BME280;53177;52.648;1.214;2023-05-21T00:01:25;101876.47;;;9.38;99.14
66381;BME280;53177;52.648;1.214;2023-05-21T00:03:53;101872.09;;;9.42;99.20
66381;BME280;53177;52.648;1.214;2023-05-21T00:06:21;101865.91;;;9.41;98.94
66381;BME280;53177;52.648;1.214;2023-05-21T00:08:52;101866.78;;;9.40;98.92
66381;BME280;53177;52.648;1.214;2023-05-21T00:11:20;101864.16;;;9.37;99.21
66381;BME280;53177;52.648;1.214;2023-05-21T00:13:49;101860.63;;;9.35;99.57
66381;BME280;53177;52.648;1.214;2023-05-21T00:16:15;101858.00;;;9.31;99.77
66381;BME280;53177;52.648;1.214;2023-05-21T00:18:42;101866.78;;;9.29;99.83
66381;BME280;53177;52.648;1.214;2023-05-21T00:21:11;101872.91;;;9.24;100.00
66381;BME280;53177;52.648;1.214;2023-05-21T00:23:40;101867.66;;;9.19;100.00
66381;BME280;53177;52.648;1.214;2023-05-21T00:26:17;101868.53;;;9.20;100.00
66381;BME280;53177;52.648;1.214;2023-05-21T00:28:46;101858.88;;;9.26;99.93
66381;BME280;53177;52.648;1.214;2023-05-21T00:31:14;101851.81;;;9.28;99.97
66381;BME280;53177;52.648;1.214;2023-05-21T00:33:43;101851.81;;;9.22;99.96
66381;BME280;53177;52.648;1.214;2023-05-21T00:36:12;101865.00;;;9.18;100.00
66381;BME280;53177;52.648;1.214;2023-05-21T00:38:42;101862.38;;;9.15;100.00
66381;BME280;53177;52.648;1.214;2023-05-21T00:41:11;101860.59;;;9.11;100.00
66381;BME280;53177;52.648;1.214;2023-05-21T00:43:44;101865.00;;;9.10;100.00
66381;BME280;53177;52.648;1.214;2023-05-21T00:46:17;101856.19;;;9.07;100.00
66381;BME280;53177;52.648;1.214;2023-05-21T00:48:47;101857.06;;;8.97;100.00
66381;BME280;53177;52.648;1.214;2023-05-21T00:51:16;101856.19;;;9.01;100.00
66381;BME280;53177;52.648;1.214;2023-05-21T00:53:50;101860.56;;;8.91;100.00
66381;BME280;53177;52.648;1.214;2023-05-21T00:56:24;101859.69;;;8.95;100.00
66381;BME280;53177;52.648;1.214;2023-05-21T00:58:55;101861.44;;;8.95;100.00
66381;BME280;53177;52.648;1.214;2023-05-21T01:01:30;101857.91;;;8.91;100.00
66381;BME280;53177;52.648;1.214;2023-05-21T01:04:03;101859.69;;;8.86;100.00
66381;BME280;53177;52.648;1.214;2023-05-21T01:06:34;101855.28;;;8.90;100.00
66381;BME280;53177;52.648;1.214;2023-05-21T01:09:04;101853.50;;;8.87;100.00
66381;BME280;53177;52.648;1.214;2023-05-21T01:11:45;101853.53;;;8.89;100.00
66381;BME280;53177;52.648;1.214;2023-05-21T01:14:18;101851.75;;;8.86;100.00
66381;BME280;53177;52.648;1.214;2023-05-21T01:16:48;101866.72;;;8.93;100.00
66381;BME280;53177;52.648;1.214;2023-05-21T01:19:22;101852.66;;;8.90;100.00
66381;BME280;53177;52.648;1.214;2023-05-21T01:22:02;101848.25;;;8.90;100.00
66381;BME280;53177;52.648;1.214;2023-05-21T01:24:34;101854.41;;;8.89;100.00
66381;BME280;53177;52.648;1.214;2023-05-21T01:27:03;101848.25;;;8.92;100.00
66381;BME280;53177;52.648;1.214;2023-05-21T01:29:36;101843.84;;;8.92;100.00
66381;BME280;53177;52.648;1.214;2023-05-21T01:35:02;101849.09;;;8.85;100.00
66381;BME280;53177;52.648;1.214;2023-05-21T01:42:49;101842.97;;;8.86;100.00
66381;BME280;53177;52.648;1.214;2023-05-21T01:45:18;101837.69;;;8.89;100.00
66381;BME280;53177;52.648;1.214;2023-05-21T01:47:48;101834.16;;;8.85;100.00
66381;BME280;53177;52.648;1.214;2023-05-21T01:50:23;101835.91;;;8.91;100.00
66381;BME280;53177;52.648;1.214;2023-05-21T01:52:55;101831.56;;;8.87;100.00
66381;BME280;53177;52.648;1.214;2023-05-21T01:55:28;101829.75;;;8.87;100.00
66381;BME280;53177;52.648;1.214;2023-05-21T01:58:00;101825.38;;;8.86;100.00
66381;BME280;53177;52.648;1.214;2023-05-21T02:00:26;101832.41;;;8.86;100.00
66381;BME280;53177;52.648;1.214;2023-05-21T02:02:59;101828.00;;;8.85;100.00
66381;BME280;53177;52.648;1.214;2023-05-21T02:05:27;101826.25;;;8.84;100.00
66381;BME280;53177;52.648;1.214;2023-05-21T02:07:55;101827.16;;;8.86;100.00
66381;BME280;53177;52.648;1.214;2023-05-21T02:10:27;101821.88;;;8.83;100.00
66381;BME280;53177;52.648;1.214;2023-05-21T02:12:55;101830.66;;;8.83;100.00
66381;BME280;53177;52.648;1.214;2023-05-21T02:15:23;101827.13;;;8.78;100.00
66381;BME280;53177;52.648;1.214;2023-05-21T02:17:52;101829.75;;;8.76;100.00
66381;BME280;53177;52.648;1.214;2023-05-21T02:20:21;101835.03;;;8.76;100.00
66381;BME280;53177;52.648;1.214;2023-05-21T02:22:53;101828.84;;;8.73;100.00
66381;BME280;53177;52.648;1.214;2023-05-21T02:25:21;101830.66;;;8.75;100.00
66381;BME280;53177;52.648;1.214;2023-05-21T02:27:50;101840.28;;;8.73;100.00
66381;BME280;53177;52.648;1.214;2023-05-21T02:30:23;101830.63;;;8.71;100.00
66381;BME280;53177;52.648;1.214;2023-05-21T02:32:51;101827.13;;;8.72;100.00
66381;BME280;53177;52.648;1.214;2023-05-21T02:35:23;101822.69;;;8.72;100.00
66381;BME280;53177;52.648;1.214;2023-05-21T02:37:55;101814.78;;;8.69;100.00
66381;BME280;53177;52.648;1.214;2023-05-21T02:40:25;101816.53;;;8.69;100.00
66381;BME280;53177;52.648;1.214;2023-05-21T02:42:53;101808.63;;;8.67;100.00
66381;BME280;53177;52.648;1.214;2023-05-21T02:45:25;101817.44;;;8.71;100.00
66381;BME280;53177;52.648;1.214;2023-05-21T02:47:53;101810.41;;;8.70;100.00
66381;BME280;53177;52.648;1.214;2023-05-21T02:50:22;101813.91;;;8.70;100.00
66381;BME280;53177;52.648;1.214;2023-05-21T02:52:57;101820.06;;;8.71;100.00
66381;BME280;53177;52.648;1.214;2023-05-21T02:55:30;101813.00;;;8.68;100.00
66381;BME280;53177;52.648;1.214;2023-05-21T02:57:58;101817.41;;;8.66;100.00
66381;BME280;53177;52.648;1.214;2023-05-21T03:00:27;101806.88;;;8.63;100.00
66381;BME280;53177;52.648;1.214;2023-05-21T03:02:57;101807.75;;;8.61;100.00
66381;BME280;53177;52.648;1.214;2023-05-21T03:05:25;101812.13;;;8.60;100.00
66381;BME280;53177;52.648;1.214;2023-05-21T03:07:52;101810.38;;;8.61;100.00
66381;BME280;53177;52.648;1.214;2023-05-21T03:10:17;101820.91;;;8.62;100.00
66381;BME280;53177;52.648;1.214;2023-05-21T03:12:43;101814.75;;;8.59;100.00
66381;BME280;53177;52.648;1.214;2023-05-21T03:15:10;101821.78;;;8.58;100.00
66381;BME280;53177;52.648;1.214;2023-05-21T03:17:41;101817.41;;;8.59;100.00
66381;BME280;53177;52.648;1.214;2023-05-21T03:20:10;101820.91;;;8.62;100.00
66381;BME280;53177;52.648;1.214;2023-05-21T03:22:49;101815.66;;;8.61;100.00
66381;BME280;53177;52.648;1.214;2023-05-21T03:25:22;101820.06;;;8.60;100.00
66381;BME280;53177;52.648;1.214;2023-05-21T03:27:51;101805.97;;;8.61;100.00
66381;BME280;53177;52.648;1.214;2023-05-21T03:30:20;101800.72;;;8.60;100.00
66381;BME280;53177;52.648;1.214;2023-05-21T03:32:51;101805.09;;;8.59;100.00
66381;BME280;53177;52.648;1.214;2023-05-21T03:35:19;101800.69;;;8.61;100.00
66381;BME280;53177;52.648;1.214;2023-05-21T03:37:45;101805.09;;;8.62;100.00
66381;BME280;53177;52.648;1.214;2023-05-21T03:40:15;101804.22;;;8.59;100.00
66381;BME280;53177;52.648;1.214;2023-05-21T03:42:49;101810.34;;;8.58;100.00
66381;BME280;53177;52.648;1.214;2023-05-21T03:45:17;101809.47;;;8.57;100.00
66381;BME280;53177;52.648;1.214;2023-05-21T03:47:44;101810.38;;;8.56;100.00
66381;BME280;53177;52.648;1.214;2023-05-21T03:50:12;101805.09;;;8.56;100.00
66381;BME280;53177;52.648;1.214;2023-05-21T03:52:40;101807.72;;;8.56;100.00
66381;BME280;53177;52.648;1.214;2023-05-21T03:55:12;101798.06;;;8.58;100.00
66381;BME280;53177;52.648;1.214;2023-05-21T03:57:41;101798.94;;;8.59;100.00
66381;BME280;53177;52.648;1.214;2023-05-21T04:00:09;101798.06;;;8.63;100.00
66381;BME280;53177;52.648;1.214;2023-05-21T04:02:37;101803.38;;;8.64;100.00
66381;BME280;53177;52.648;1.214;2023-05-21T04:05:06;101798.06;;;8.63;100.00
66381;BME280;53177;52.648;1.214;2023-05-21T04:07:38;101804.22;;;8.66;100.00
66381;BME280;53177;52.648;1.214;2023-05-21T04:10:06;101791.06;;;8.68;100.00
66381;BME280;53177;52.648;1.214;2023-05-21T04:12:35;101799.84;;;8.70;100.00
66381;BME280;53177;52.648;1.214;2023-05-21T04:15:03;101802.50;;;8.71;100.00
66381;BME280;53177;52.648;1.214;2023-05-21T04:17:34;101803.38;;;8.72;100.00
66381;BME280;53177;52.648;1.214;2023-05-21T04:20:03;101797.22;;;8.73;100.00
66381;BME280;53177;52.648;1.214;2023-05-21T04:22:31;101806.88;;;8.74;100.00
66381;BME280;53177;52.648;1.214;2023-05-21T04:25:01;101800.75;;;8.78;100.00
66381;BME280;53177;52.648;1.214;2023-05-21T04:27:27;101803.38;;;8.79;100.00
66381;BME280;53177;52.648;1.214;2023-05-21T04:29:54;101799.88;;;8.80;100.00
66381;BME280;53177;52.648;1.214;2023-05-21T04:32:27;101804.28;;;8.83;100.00
66381;BME280;53177;52.648;1.214;2023-05-21T04:34:57;101790.22;;;8.86;100.00
66381;BME280;53177;52.648;1.214;2023-05-21T04:37:27;101802.53;;;8.88;100.00
66381;BME280;53177;52.648;1.214;2023-05-21T04:40:00;101803.41;;;8.89;100.00
66381;BME280;53177;52.648;1.214;2023-05-21T04:42:31;101802.53;;;8.91;100.00
66381;BME280;53177;52.648;1.214;2023-05-21T04:45:04;101808.69;;;8.92;100.00
66381;BME280;53177;52.648;1.214;2023-05-21T04:47:30;101810.44;;;8.93;100.00
66381;BME280;53177;52.648;1.214;2023-05-21T04:50:03;101813.06;;;8.91;100.00
66381;BME280;53177;52.648;1.214;2023-05-21T04:52:29;101813.97;;;8.93;100.00
66381;BME280;53177;52.648;1.214;2023-05-21T04:54:56;101804.31;;;8.94;100.00
66381;BME280;53177;52.648;1.214;2023-05-21T04:57:22;101814.84;;;8.95;100.00
66381;BME280;53177;52.648;1.214;2023-05-21T04:59:52;101814.84;;;8.98;100.00
66381;BME280;53177;52.648;1.214;2023-05-21T05:02:18;101813.97;;;8.99;100.00
66381;BME280;53177;52.648;1.214;2023-05-21T05:04:46;101823.63;;;9.02;100.00
66381;BME280;53177;52.648;1.214;2023-05-21T05:07:14;101821.00;;;9.03;100.00
66381;BME280;53177;52.648;1.214;2023-05-21T05:09:43;101815.72;;;9.06;100.00
66381;BME280;53177;52.648;1.214;2023-05-21T05:12:12;101816.63;;;9.08;100.00
66381;BME280;53177;52.648;1.214;2023-05-21T05:14:43;101820.13;;;9.13;100.00
66381;BME280;53177;52.648;1.214;2023-05-21T05:17:11;101815.75;;;9.15;100.00
66381;BME280;53177;52.648;1.214;2023-05-21T05:19:43;101817.50;;;9.21;100.00
66381;BME280;53177;52.648;1.214;2023-05-21T05:22:11;101824.56;;;9.23;100.00
66381;BME280;53177;52.648;1.214;2023-05-21T05:24:46;101818.38;;;9.27;100.00
66381;BME280;53177;52.648;1.214;2023-05-21T05:27:15;101818.41;;;9.34;100.00
66381;BME280;53177;52.648;1.214;2023-05-21T05:29:44;101814.88;;;9.36;100.00
66381;BME280;53177;52.648;1.214;2023-05-21T05:32:13;101816.63;;;9.39;100.00
66381;BME280;53177;52.648;1.214;2023-05-21T05:34:41;101819.28;;;9.42;100.00
66381;BME280;53177;52.648;1.214;2023-05-21T05:37:10;101813.09;;;9.47;100.00
66381;BME280;53177;52.648;1.214;2023-05-21T05:39:38;101806.94;;;9.51;100.00
66381;BME280;53177;52.648;1.214;2023-05-21T05:42:07;101806.94;;;9.57;100.00
66381;BME280;53177;52.648;1.214;2023-05-21T05:44:35;101798.13;;;9.63;100.00
66381;BME280;53177;52.648;1.214;2023-05-21T05:47:04;101787.56;;;9.70;100.00
66381;BME280;53177;52.648;1.214;2023-05-21T05:49:35;101805.16;;;9.77;100.00
66381;BME280;53177;52.648;1.214;2023-05-21T05:52:00;101801.59;;;9.83;100.00
66381;BME280;53177;52.648;1.214;2023-05-21T05:54:26;101795.44;;;9.90;100.00
66381;BME280;53177;52.648;1.214;2023-05-21T05:56:51;101795.44;;;9.93;100.00
66381;BME280;53177;52.648;1.214;2023-05-21T05:59:17;101798.94;;;10.00;100.00
66381;BME280;53177;52.648;1.214;2023-05-21T06:01:42;101787.47;;;10.04;100.00
66381;BME280;53177;52.648;1.214;2023-05-21T06:04:07;101798.88;;;10.09;100.00
66381;BME280;53177;52.648;1.214;2023-05-21T06:06:33;101790.09;;;10.16;100.00
66381;BME280;53177;52.648;1.214;2023-05-21T06:08:59;101794.47;;;10.23;100.00
66381;BME280;53177;52.648;1.214;2023-05-21T06:11:25;101790.06;;;10.27;100.00
66381;BME280;53177;52.648;1.214;2023-05-21T06:13:50;101797.06;;;10.34;100.00
66381;BME280;53177;52.648;1.214;2023-05-21T06:16:16;101797.91;;;10.43;100.00
66381;BME280;53177;52.648;1.214;2023-05-21T06:18:43;101804.94;;;10.49;100.00
66381;BME280;53177;52.648;1.214;2023-05-21T06:21:10;101796.94;;;10.58;100.00
66381;BME280;53177;52.648;1.214;2023-05-21T06:23:38;101800.44;;;10.66;100.00
66381;BME280;53177;52.648;1.214;2023-05-21T06:26:10;101788.94;;;10.74;100.00
66381;BME280;53177;52.648;1.214;2023-05-21T06:28:38;101794.19;;;10.78;100.00
66381;BME280;53177;52.648;1.214;2023-05-21T06:31:06;101787.16;;;10.75;100.00
66381;BME280;53177;52.648;1.214;2023-05-21T06:33:35;101788.94;;;10.74;100.00
66381;BME280;53177;52.648;1.214;2023-05-21T06:36:06;101793.31;;;10.77;100.00
66381;BME280;53177;52.648;1.214;2023-05-21T06:38:34;101787.13;;;10.77;100.00
66381;BME280;53177;52.648;1.214;2023-05-21T06:41:03;101789.75;;;10.83;100.00
66381;BME280;53177;52.648;1.214;2023-05-21T06:43:32;101794.09;;;10.91;100.00
66381;BME280;53177;52.648;1.214;2023-05-21T06:45:58;101786.16;;;10.93;100.00
66381;BME280;53177;52.648;1.214;2023-05-21T06:48:30;101786.13;;;10.96;100.00
66381;BME280;53177;52.648;1.214;2023-05-21T06:50:58;101779.06;;;10.95;100.00
66381;BME280;53177;52.648;1.214;2023-05-21T06:53:25;101774.63;;;10.98;99.63
66381;BME280;53177;52.648;1.214;2023-05-21T06:55:52;101782.47;;;11.09;99.87
66381;BME280;53177;52.648;1.214;2023-05-21T06:58:24;101784.19;;;11.17;99.17
66381;BME280;53177;52.648;1.214;2023-05-21T07:00:55;101775.31;;;11.26;98.59
66381;BME280;53177;52.648;1.214;2023-05-21T07:03:25;101776.91;;;11.42;98.52
66381;BME280;53177;52.648;1.214;2023-05-21T07:05:52;101776.91;;;11.45;97.74
66381;BME280;53177;52.648;1.214;2023-05-21T07:08:18;101768.88;;;11.51;96.57
66381;BME280;53177;52.648;1.214;2023-05-21T07:10:44;101768.88;;;11.51;95.13
66381;BME280;53177;52.648;1.214;2023-05-21T07:13:10;101777.63;;;11.58;95.21
66381;BME280;53177;52.648;1.214;2023-05-21T07:15:36;101782.88;;;11.67;95.06
66381;BME280;53177;52.648;1.214;2023-05-21T07:18:01;101781.84;;;11.80;95.13
66381;BME280;53177;52.648;1.214;2023-05-21T07:20:27;101779.94;;;11.96;94.22
66381;BME280;53177;52.648;1.214;2023-05-21T07:22:53;101773.69;;;12.00;93.28
66381;BME280;53177;52.648;1.214;2023-05-21T07:25:18;101778.91;;;12.07;92.43
66381;BME280;53177;52.648;1.214;2023-05-21T07:27:44;101774.41;;;12.14;91.43
66381;BME280;53177;52.648;1.214;2023-05-21T07:30:09;101780.47;;;12.24;91.25
66381;BME280;53177;52.648;1.214;2023-05-21T07:32:35;101779.47;;;12.31;89.51
66381;BME280;53177;52.648;1.214;2023-05-21T07:35:00;101775.16;;;12.24;87.78
66381;BME280;53177;52.648;1.214;2023-05-21T07:37:26;101775.09;;;12.30;88.75
66381;BME280;53177;52.648;1.214;2023-05-21T07:39:52;101770.53;;;12.41;87.32
66381;BME280;53177;52.648;1.214;2023-05-21T07:42:18;101774.81;;;12.51;87.58
66381;BME280;53177;52.648;1.214;2023-05-21T07:44:43;101778.19;;;12.60;86.49
66381;BME280;53177;52.648;1.214;2023-05-21T07:47:09;101776.38;;;12.65;84.59
66381;BME280;53177;52.648;1.214;2023-05-21T07:49:34;101778.06;;;12.71;82.43
66381;BME280;53177;52.648;1.214;2023-05-21T07:51:59;101776.25;;;12.75;80.46
66381;BME280;53177;52.648;1.214;2023-05-21T07:54:25;101787.81;;;12.71;78.86
66381;BME280;53177;52.648;1.214;2023-05-21T07:56:50;101788.56;;;12.79;79.03
66381;BME280;53177;52.648;1.214;2023-05-21T07:59:16;101783.91;;;12.94;78.38
66381;BME280;53177;52.648;1.214;2023-05-21T08:01:41;101783.72;;;13.05;76.83
66381;BME280;53177;52.648;1.214;2023-05-21T08:04:07;101787.22;;;13.11;76.18
66381;BME280;53177;52.648;1.214;2023-05-21T08:06:32;101791.53;;;13.19;74.73
66381;BME280;53177;52.648;1.214;2023-05-21T08:08:59;101792.50;;;13.13;72.58
66381;BME280;53177;52.648;1.214;2023-05-21T08:11:26;101792.50;;;13.13;72.18
66381;BME280;53177;52.648;1.214;2023-05-21T08:13:51;101797.84;;;13.10;72.33
66381;BME280;53177;52.648;1.214;2023-05-21T08:16:17;101790.59;;;13.21;71.08
66381;BME280;53177;52.648;1.214;2023-05-21T08:18:42;101790.53;;;13.26;70.90
66381;BME280;53177;52.648;1.214;2023-05-21T08:21:07;101780.53;;;13.40;72.42
66381;BME280;53177;52.648;1.214;2023-05-21T08:23:33;101785.84;;;13.41;70.65
66381;BME280;53177;52.648;1.214;2023-05-21T08:25:59;101785.59;;;13.53;71.74
66381;BME280;53177;52.648;1.214;2023-05-21T08:28:24;101788.88;;;13.68;70.57
66381;BME280;53177;52.648;1.214;2023-05-21T08:30:51;101789.81;;;13.65;70.08
66381;BME280;53177;52.648;1.214;2023-05-21T08:33:16;101789.53;;;13.80;70.86
66381;BME280;53177;52.648;1.214;2023-05-21T08:35:42;101788.59;;;13.84;69.63
66381;BME280;53177;52.648;1.214;2023-05-21T08:38:07;101793.81;;;13.89;69.19
66381;BME280;53177;52.648;1.214;2023-05-21T08:40:33;101798.31;;;13.85;68.55
66381;BME280;53177;52.648;1.214;2023-05-21T08:43:00;101796.44;;;13.90;68.13
66381;BME280;53177;52.648;1.214;2023-05-21T08:45:25;101797.97;;;14.03;68.54
66381;BME280;53177;52.648;1.214;2023-05-21T08:47:55;101799.44;;;14.18;69.30
66381;BME280;53177;52.648;1.214;2023-05-21T08:50:25;101803.81;;;14.21;69.69
66381;BME280;53177;52.648;1.214;2023-05-21T08:52:50;101804.06;;;14.08;69.71
66381;BME280;53177;52.648;1.214;2023-05-21T08:55:17;101808.34;;;14.15;71.26
66381;BME280;53177;52.648;1.214;2023-05-21T08:57:43;101804.19;;;14.02;71.48
66381;BME280;53177;52.648;1.214;2023-05-21T09:00:09;101804.94;;;14.09;71.58
66381;BME280;53177;52.648;1.214;2023-05-21T09:02:36;101815.56;;;14.53;72.21
66381;BME280;53177;52.648;1.214;2023-05-21T09:05:05;101809.19;;;14.62;71.65
66381;BME280;53177;52.648;1.214;2023-05-21T09:07:38;101819.13;;;14.54;71.09
66381;BME280;53177;52.648;1.214;2023-05-21T09:10:11;101813.78;;;14.54;72.02
66381;BME280;53177;52.648;1.214;2023-05-21T09:12:37;101819.59;;;14.73;71.96
66381;BME280;53177;52.648;1.214;2023-05-21T09:15:04;101816.91;;;14.74;71.88
66381;BME280;53177;52.648;1.214;2023-05-21T09:17:31;101804.81;;;14.98;71.17
66381;BME280;53177;52.648;1.214;2023-05-21T09:20:11;101818.41;;;15.23;71.59
66381;BME280;53177;52.648;1.214;2023-05-21T09:22:43;101813.03;;;14.89;72.06
66381;BME280;53177;52.648;1.214;2023-05-21T09:25:11;101806.59;;;14.97;72.25
66381;BME280;53177;52.648;1.214;2023-05-21T09:27:37;101801.06;;;15.06;71.10
66381;BME280;53177;52.648;1.214;2023-05-21T09:30:04;101800.81;;;15.52;71.44
66381;BME280;53177;52.648;1.214;2023-05-21T09:32:33;101807.50;;;15.69;69.72
66381;BME280;53177;52.648;1.214;2023-05-21T09:35:13;101809.84;;;15.45;70.54
66381;BME280;53177;52.648;1.214;2023-05-21T09:37:43;101799.59;;;15.66;70.13
66381;BME280;53177;52.648;1.214;2023-05-21T09:40:15;101805.34;;;15.49;69.64
66381;BME280;53177;52.648;1.214;2023-05-21T09:45:32;101796.03;;;15.67;69.91
66381;BME280;53177;52.648;1.214;2023-05-21T09:47:58;101804.94;;;15.64;71.15
66381;BME280;53177;52.648;1.214;2023-05-21T09:50:25;101804.47;;;15.11;71.35
66381;BME280;53177;52.648;1.214;2023-05-21T09:52:54;101800.16;;;15.43;71.51
66381;BME280;53177;52.648;1.214;2023-05-21T09:55:24;101794.72;;;15.47;71.26
66381;BME280;53177;52.648;1.214;2023-05-21T09:57:51;101785.09;;;15.76;70.69
66381;BME280;53177;52.648;1.214;2023-05-21T10:00:26;101794.19;;;15.33;71.88
66381;BME280;53177;52.648;1.214;2023-05-21T10:02:57;101792.16;;;15.43;72.10
66381;BME280;53177;52.648;1.214;2023-05-21T10:05:26;101796.09;;;15.27;72.53
66381;BME280;53177;52.648;1.214;2023-05-21T10:07:59;101797.25;;;15.17;71.34
66381;BME280;53177;52.648;1.214;2023-05-21T10:10:26;101796.88;;;14.95;72.23
66381;BME280;53177;52.648;1.214;2023-05-21T10:12:59;101801.03;;;14.68;72.98
66381;BME280;53177;52.648;1.214;2023-05-21T10:15:30;101796.19;;;14.87;73.19
66381;BME280;53177;52.648;1.214;2023-05-21T10:17:57;101787.00;;;15.00;72.09
66381;BME280;53177;52.648;1.214;2023-05-21T10:20:24;101791.19;;;15.10;72.54
66381;BME280;53177;52.648;1.214;2023-05-21T10:22:50;101788.09;;;14.91;73.90
66381;BME280;53177;52.648;1.214;2023-05-21T10:25:16;101786.31;;;14.92;73.44
66381;BME280;53177;52.648;1.214;2023-05-21T10:27:41;101793.69;;;14.79;74.19
66381;BME280;53177;52.648;1.214;2023-05-21T10:30:08;101787.38;;;14.85;73.13
66381;BME280;53177;52.648;1.214;2023-05-21T10:32:34;101788.13;;;14.90;72.97
66381;BME280;53177;52.648;1.214;2023-05-21T10:35:00;101788.66;;;15.04;72.96
66381;BME280;53177;52.648;1.214;2023-05-21T10:37:27;101775.44;;;15.36;73.97
66381;BME280;53177;52.648;1.214;2023-05-21T10:39:53;101779.03;;;15.34;72.05
66381;BME280;53177;52.648;1.214;2023-05-21T10:50:44;101768.00;;;15.50;70.65
66381;BME280;53177;52.648;1.214;2023-05-21T11:01:04;101758.81;;;16.53;68.73
66381;BME280;53177;52.648;1.214;2023-05-21T11:03:31;101751.81;;;16.20;66.96
66381;BME280;53177;52.648;1.214;2023-05-21T11:05:57;101754.13;;;16.32;66.98
66381;BME280;53177;52.648;1.214;2023-05-21T11:08:24;101750.66;;;16.59;66.40
66381;BME280;53177;52.648;1.214;2023-05-21T11:10:54;101752.91;;;16.73;65.24
66381;BME280;53177;52.648;1.214;2023-05-21T11:13:23;101745.44;;;16.54;66.31
66381;BME280;53177;52.648;1.214;2023-05-21T11:21:13;101744.34;;;16.62;66.24
66381;BME280;53177;52.648;1.214;2023-05-21T11:23:54;101740.53;;;16.10;66.70
66381;BME280;53177;52.648;1.214;2023-05-21T11:26:27;101738.69;;;16.12;66.93
66381;BME280;53177;52.648;1.214;2023-05-21T11:29:10;101735.47;;;16.61;66.83
66381;BME280;53177;52.648;1.214;2023-05-21T11:31:36;101736.03;;;16.41;64.61
66381;BME280;53177;52.648;1.214;2023-05-21T11:36:36;101739.16;;;16.55;65.72
66381;BME280;53177;52.648;1.214;2023-05-21T11:39:09;101735.66;;;16.83;63.80
66381;BME280;53177;52.648;1.214;2023-05-21T11:41:57;101722.66;;;16.98;64.54
66381;BME280;53177;52.648;1.214;2023-05-21T11:47:05;101734.47;;;16.64;64.31
66381;BME280;53177;52.648;1.214;2023-05-21T11:49:31;101730.53;;;16.75;62.12
66381;BME280;53177;52.648;1.214;2023-05-21T11:51:58;101731.47;;;16.45;63.74
66381;BME280;53177;52.648;1.214;2023-05-21T11:54:24;101735.66;;;16.53;62.99
66381;BME280;53177;52.648;1.214;2023-05-21T11:56:50;101735.13;;;16.72;64.22
66381;BME280;53177;52.648;1.214;2023-05-21T11:59:16;101733.41;;;16.97;63.92
66381;BME280;53177;52.648;1.214;2023-05-21T12:01:42;101739.66;;;17.22;62.65
66381;BME280;53177;52.648;1.214;2023-05-21T12:04:08;101724.56;;;16.95;63.80
66381;BME280;53177;52.648;1.214;2023-05-21T12:06:36;101738.63;;;17.00;61.52
66381;BME280;53177;52.648;1.214;2023-05-21T12:09:02;101731.28;;;16.80;61.30
66381;BME280;53177;52.648;1.214;2023-05-21T12:11:29;101734.53;;;17.16;63.00
66381;BME280;53177;52.648;1.214;2023-05-21T12:13:55;101734.28;;;16.97;62.68
66381;BME280;53177;52.648;1.214;2023-05-21T12:16:21;101740.84;;;16.60;63.73
66381;BME280;53177;52.648;1.214;2023-05-21T12:18:46;101734.06;;;16.48;64.09
66381;BME280;53177;52.648;1.214;2023-05-21T12:21:12;101736.19;;;16.66;63.96
66381;BME280;53177;52.648;1.214;2023-05-21T12:23:37;101731.88;;;16.33;63.93
66381;BME280;53177;52.648;1.214;2023-05-21T12:26:03;101722.22;;;16.58;64.49
66381;BME280;53177;52.648;1.214;2023-05-21T12:28:29;101722.91;;;16.63;64.15
66381;BME280;53177;52.648;1.214;2023-05-21T12:30:54;101722.06;;;16.89;63.00
66381;BME280;53177;52.648;1.214;2023-05-21T12:33:20;101714.00;;;16.92;62.32
66381;BME280;53177;52.648;1.214;2023-05-21T12:35:46;101718.50;;;16.90;61.31
66381;BME280;53177;52.648;1.214;2023-05-21T12:38:14;101720.44;;;16.55;62.32
66381;BME280;53177;52.648;1.214;2023-05-21T12:40:40;101712.34;;;16.88;61.99
66381;BME280;53177;52.648;1.214;2023-05-21T12:43:07;101716.34;;;17.01;62.43
66381;BME280;53177;52.648;1.214;2023-05-21T12:45:33;101707.25;;;16.80;61.08
66381;BME280;53177;52.648;1.214;2023-05-21T12:48:02;101709.84;;;16.82;60.50
66381;BME280;53177;52.648;1.214;2023-05-21T12:50:27;101706.63;;;16.98;60.32
66381;BME280;53177;52.648;1.214;2023-05-21T12:52:56;101709.78;;;16.85;60.15
66381;BME280;53177;52.648;1.214;2023-05-21T12:55:25;101704.38;;;16.59;58.96
66381;BME280;53177;52.648;1.214;2023-05-21T12:58:00;101693.75;;;16.55;57.05
66381;BME280;53177;52.648;1.214;2023-05-21T13:00:26;101691.03;;;16.59;59.19
66381;BME280;53177;52.648;1.214;2023-05-21T13:02:52;101693.16;;;16.75;55.52
66381;BME280;53177;52.648;1.214;2023-05-21T13:05:17;101688.53;;;16.80;56.25
66381;BME280;53177;52.648;1.214;2023-05-21T13:07:43;101680.19;;;16.89;57.92
66381;BME280;53177;52.648;1.214;2023-05-21T13:10:12;101682.06;;;16.87;57.52
66381;BME280;53177;52.648;1.214;2023-05-21T13:12:38;101691.22;;;16.80;58.25
66381;BME280;53177;52.648;1.214;2023-05-21T13:15:04;101685.28;;;16.97;56.98
66381;BME280;53177;52.648;1.214;2023-05-21T13:17:30;101683.56;;;16.96;56.74
66381;BME280;53177;52.648;1.214;2023-05-21T13:20:13;101693.00;;;17.06;54.88
66381;BME280;53177;52.648;1.214;2023-05-21T13:22:44;101686.75;;;16.81;53.94
66381;BME280;53177;52.648;1.214;2023-05-21T13:25:14;101692.69;;;16.89;53.47
66381;BME280;53177;52.648;1.214;2023-05-21T13:27:41;101693.28;;;16.71;52.99
66381;BME280;53177;52.648;1.214;2023-05-21T13:30:07;101690.41;;;16.49;54.40
66381;BME280;53177;52.648;1.214;2023-05-21T13:32:33;101693.28;;;16.98;55.74
66381;BME280;53177;52.648;1.214;2023-05-21T13:34:59;101692.09;;;16.81;53.10